Time;durP1;ratioP1;P1;durP2;ratioP2;P2;SDS_P1;SDS_P2;PMS_P1;PMS_P2;Temp;Humidity;BMP_temperature;BMP_pressure;BME280_temperature;BME280_humidity;BME280_pressure;Samples;Min_cycle;Max_cycle;Signal;HPM_P1;HPM_P2
2021/09/20 00:00:09;;;;;;;9.88;7.00;;;;;;;13.10;100.00;101668.22;5262191;28;20031;-68
2021/09/20 00:02:41;;;;;;;8.20;6.88;;;;;;;13.07;100.00;101665.88;5261677;28;20033;-68
2021/09/20 00:05:12;;;;;;;8.80;6.47;;;;;;;13.12;100.00;101661.03;5261559;28;20013;-70
2021/09/20 00:07:43;;;;;;;9.60;6.72;;;;;;;13.07;100.00;101665.88;5259433;28;20418;-68
2021/09/20 00:10:15;;;;;;;9.23;6.45;;;;;;;13.06;100.00;101669.44;5260661;28;20036;-69
2021/09/20 00:12:46;;;;;;;9.65;6.53;;;;;;;12.98;100.00;101662.16;5263548;28;20552;-68
2021/09/20 00:15:18;;;;;;;10.85;7.55;;;;;;;12.95;100.00;101667.66;5255146;28;20067;-69
2021/09/20 00:17:49;;;;;;;8.20;6.35;;;;;;;12.96;100.00;101673.78;5254367;28;20076;-70
2021/09/20 00:20:21;;;;;;;9.23;6.53;;;;;;;12.88;100.00;101666.53;5261417;28;20387;-68
2021/09/20 00:22:52;;;;;;;7.90;6.60;;;;;;;12.88;100.00;101670.00;5262558;28;20117;-69
2021/09/20 00:25:24;;;;;;;9.30;6.68;;;;;;;12.82;100.00;101667.84;5261595;28;20402;-68
2021/09/20 00:27:55;;;;;;;9.93;6.97;;;;;;;12.87;100.00;101667.47;5259994;28;20118;-70
2021/09/20 00:30:26;;;;;;;9.25;6.68;;;;;;;12.80;100.00;101661.03;5262609;28;20039;-68
2021/09/20 00:32:58;;;;;;;11.20;7.07;;;;;;;12.75;100.00;101669.31;5261059;28;20037;-68
2021/09/20 00:35:29;;;;;;;7.55;6.65;;;;;;;12.74;100.00;101667.63;5261306;28;20052;-67
2021/09/20 00:38:00;;;;;;;8.70;6.78;;;;;;;12.67;100.00;101674.34;5260648;28;20021;-68
2021/09/20 00:40:32;;;;;;;8.02;6.35;;;;;;;12.69;100.00;101669.81;5258315;28;20315;-68
2021/09/20 00:43:03;;;;;;;9.40;7.07;;;;;;;12.61;100.00;101674.81;5258684;28;20021;-68
2021/09/20 00:45:35;;;;;;;8.52;7.35;;;;;;;12.57;100.00;101674.22;5259848;28;20167;-68
2021/09/20 00:48:08;;;;;;;10.75;6.85;;;;;;;12.51;100.00;101679.16;5261016;28;20047;-67
2021/09/20 00:50:40;;;;;;;8.68;7.63;;;;;;;12.52;100.00;101679.03;5260902;28;20044;-68
2021/09/20 00:53:11;;;;;;;9.85;7.57;;;;;;;12.52;100.00;101676.41;5260710;28;20100;-67
2021/09/20 00:55:44;;;;;;;8.20;7.22;;;;;;;12.51;100.00;101669.50;5259109;28;20437;-68
2021/09/20 00:58:15;;;;;;;8.73;6.90;;;;;;;12.45;100.00;101672.59;5259762;28;20028;-70
2021/09/20 01:00:47;;;;;;;9.00;8.05;;;;;;;12.37;100.00;101677.63;5261150;28;20470;-68
2021/09/20 01:03:18;;;;;;;9.20;7.15;;;;;;;12.31;100.00;101673.72;5259283;28;20027;-69
2021/09/20 01:05:50;;;;;;;9.43;7.03;;;;;;;12.39;100.00;101673.09;5260197;28;20033;-67
2021/09/20 01:08:21;;;;;;;9.38;7.20;;;;;;;12.22;100.00;101663.91;5261283;28;20088;-67
2021/09/20 01:10:53;;;;;;;10.63;7.50;;;;;;;12.22;100.00;101677.03;5262364;28;20068;-68
2021/09/20 01:13:25;;;;;;;10.27;7.57;;;;;;;12.20;100.00;101672.84;5261799;28;20075;-68
2021/09/20 01:15:56;;;;;;;10.45;7.80;;;;;;;12.23;100.00;101668.19;5258416;28;20036;-70
2021/09/20 01:18:27;;;;;;;8.93;7.63;;;;;;;12.16;100.00;101665.25;5261577;28;20131;-68
2021/09/20 01:20:59;;;;;;;8.55;7.28;;;;;;;12.09;100.00;101668.47;5263602;28;20094;-67
2021/09/20 01:23:31;;;;;;;9.45;7.75;;;;;;;12.10;100.00;101667.50;5261580;28;20036;-70
2021/09/20 01:26:02;;;;;;;8.82;7.65;;;;;;;12.18;100.00;101672.97;5261457;28;20071;-68
2021/09/20 01:28:33;;;;;;;8.32;7.18;;;;;;;12.13;100.00;101670.72;5259190;28;20125;-70
2021/09/20 01:31:05;;;;;;;10.18;7.88;;;;;;;12.08;100.00;101669.41;5262541;28;20041;-69
2021/09/20 01:33:36;;;;;;;13.40;8.02;;;;;;;12.06;100.00;101676.56;5260928;28;20028;-68
2021/09/20 01:36:07;;;;;;;10.07;7.75;;;;;;;11.99;100.00;101681.47;5262593;28;20045;-69
2021/09/20 01:38:39;;;;;;;10.20;8.65;;;;;;;11.95;100.00;101687.06;5260971;28;20324;-68
2021/09/20 01:41:10;;;;;;;11.00;8.10;;;;;;;12.00;100.00;101680.50;5264369;28;20032;-69
2021/09/20 01:43:41;;;;;;;10.25;7.90;;;;;;;12.01;100.00;101673.44;5258166;28;20029;-68
2021/09/20 01:46:13;;;;;;;12.35;8.00;;;;;;;11.93;100.00;101682.78;5266366;28;20040;-68
2021/09/20 01:48:44;;;;;;;10.00;7.80;;;;;;;11.97;100.00;101677.28;5264537;28;20045;-70
2021/09/20 01:51:15;;;;;;;10.85;7.65;;;;;;;12.00;100.00;101679.66;5263138;28;20051;-68
2021/09/20 01:53:47;;;;;;;9.73;8.10;;;;;;;12.00;100.00;101677.03;5266534;28;20111;-68
2021/09/20 01:56:20;;;;;;;13.10;8.75;;;;;;;11.92;100.00;101680.25;5262998;28;20043;-68
2021/09/20 01:58:51;;;;;;;10.55;8.30;;;;;;;12.06;100.00;101676.56;5266015;28;20099;-68
2021/09/20 02:01:23;;;;;;;11.20;8.40;;;;;;;12.01;100.00;101682.19;5266165;28;20425;-69
2021/09/20 02:03:54;;;;;;;8.93;7.78;;;;;;;11.99;100.00;101680.63;5265317;28;20382;-68
2021/09/20 02:06:26;;;;;;;9.55;8.52;;;;;;;12.00;100.00;101682.28;5263407;28;20111;-68
2021/09/20 02:08:57;;;;;;;11.05;9.23;;;;;;;12.05;100.00;101698.56;5262951;28;20063;-70
2021/09/20 02:11:28;;;;;;;10.90;8.57;;;;;;;11.98;100.00;101697.34;5262361;28;20398;-67
2021/09/20 02:14:00;;;;;;;14.82;8.70;;;;;;;11.95;100.00;101697.56;5264887;28;20049;-69
2021/09/20 02:16:31;;;;;;;11.25;9.35;;;;;;;11.83;100.00;101692.31;5263755;28;20036;-67
2021/09/20 02:19:04;;;;;;;10.13;8.05;;;;;;;11.91;100.00;101695.19;5265238;28;20032;-68
2021/09/20 02:21:35;;;;;;;10.15;8.38;;;;;;;11.93;100.00;101695.91;5265003;28;20123;-67
2021/09/20 02:24:06;;;;;;;11.05;9.13;;;;;;;11.95;100.00;101687.91;5264738;28;20505;-69
2021/09/20 02:26:38;;;;;;;12.13;8.65;;;;;;;11.91;100.00;101684.69;5262779;28;20402;-69
2021/09/20 02:29:09;;;;;;;9.60;8.35;;;;;;;11.87;100.00;101691.13;5264515;28;20036;-67
2021/09/20 02:31:40;;;;;;;10.65;8.88;;;;;;;11.84;100.00;101698.41;5263836;28;20881;-68
2021/09/20 02:34:12;;;;;;;9.63;8.32;;;;;;;11.86;100.00;101694.72;5263279;28;20032;-67
2021/09/20 02:36:45;;;;;;;11.45;9.40;;;;;;;11.76;100.00;101692.88;5265192;28;20265;-67
2021/09/20 02:39:16;;;;;;;11.20;8.48;;;;;;;11.72;100.00;101692.25;5263438;28;20036;-68
2021/09/20 02:41:47;;;;;;;10.73;8.90;;;;;;;11.67;100.00;101689.16;5264670;28;20616;-68
2021/09/20 02:44:19;;;;;;;11.90;9.10;;;;;;;11.61;100.00;101687.00;5262989;28;20040;-69
2021/09/20 02:46:50;;;;;;;10.60;8.63;;;;;;;11.49;100.00;101690.53;5260242;28;20024;-68
2021/09/20 02:49:21;;;;;;;11.30;9.20;;;;;;;11.39;100.00;101680.72;5255824;28;20049;-69
2021/09/20 02:51:53;;;;;;;12.60;8.60;;;;;;;11.45;100.00;101687.31;5264303;28;20483;-68
2021/09/20 02:54:24;;;;;;;10.00;8.45;;;;;;;11.38;100.00;101697.44;5262644;28;20025;-69
2021/09/20 02:56:55;;;;;;;9.95;8.23;;;;;;;11.32;100.00;101691.78;5262382;28;20037;-69
2021/09/20 02:59:27;;;;;;;12.02;8.98;;;;;;;11.31;100.00;101696.19;5262793;28;20067;-68
2021/09/20 03:01:58;;;;;;;9.70;8.70;;;;;;;11.26;100.00;101698.34;5265488;28;20033;-68
2021/09/20 03:04:29;;;;;;;10.70;8.75;;;;;;;11.23;100.00;101709.06;5263409;28;20896;-68
2021/09/20 03:07:00;;;;;;;13.20;8.98;;;;;;;11.16;100.00;101698.16;5262104;28;20037;-67
2021/09/20 03:09:32;;;;;;;14.23;9.00;;;;;;;11.17;100.00;101706.88;5260797;28;20055;-68
2021/09/20 03:12:04;;;;;;;10.00;8.70;;;;;;;11.21;100.00;101708.31;5263578;28;20102;-68
2021/09/20 03:14:35;;;;;;;12.38;9.15;;;;;;;11.13;100.00;101713.28;5263424;28;20457;-67
2021/09/20 03:17:06;;;;;;;9.35;8.23;;;;;;;11.11;100.00;101717.84;5261126;28;20147;-70
2021/09/20 03:19:38;;;;;;;10.07;8.63;;;;;;;11.08;100.00;101720.66;5264344;28;20550;-69
2021/09/20 03:22:09;;;;;;;10.73;8.45;;;;;;;11.05;100.00;101726.97;5263140;28;20025;-67
2021/09/20 03:24:41;;;;;;;10.30;9.00;;;;;;;11.02;100.00;101729.81;5262250;28;20044;-70
2021/09/20 03:27:12;;;;;;;10.55;9.02;;;;;;;10.98;100.00;101732.78;5261310;28;20017;-68
2021/09/20 03:29:44;;;;;;;12.25;9.50;;;;;;;10.96;100.00;101731.09;5260929;28;20049;-68
2021/09/20 03:32:15;;;;;;;10.52;8.93;;;;;;;10.97;100.00;101731.94;5263737;28;20044;-67
2021/09/20 03:34:46;;;;;;;10.60;8.65;;;;;;;10.95;100.00;101732.06;5261684;28;20025;-68
2021/09/20 03:37:18;;;;;;;10.73;9.45;;;;;;;10.89;100.00;101718.53;5260625;28;20040;-69
2021/09/20 03:39:49;;;;;;;10.93;9.05;;;;;;;10.83;100.00;101724.22;5263226;28;20080;-69
2021/09/20 03:42:21;;;;;;;11.38;8.70;;;;;;;10.75;100.00;101734.41;5263571;28;20047;-67
2021/09/20 03:44:52;;;;;;;10.45;9.15;;;;;;;10.76;100.00;101726.47;5260728;28;20041;-67
2021/09/20 03:47:24;;;;;;;12.75;8.85;;;;;;;10.76;100.00;101730.84;5263542;28;20059;-69
2021/09/20 03:49:55;;;;;;;11.07;9.60;;;;;;;10.71;100.00;101724.16;5262841;28;20033;-67
2021/09/20 03:52:26;;;;;;;12.18;9.93;;;;;;;10.67;100.00;101716.63;5262114;28;20033;-67
2021/09/20 03:54:58;;;;;;;11.50;10.02;;;;;;;10.64;100.00;101727.31;5263857;28;20036;-69
2021/09/20 03:57:29;;;;;;;13.63;10.52;;;;;;;10.60;100.00;101731.94;5261700;28;20032;-67
2021/09/20 04:00:01;;;;;;;12.40;10.70;;;;;;;10.55;100.00;101722.75;5261302;28;20117;-69
2021/09/20 04:02:32;;;;;;;15.52;10.90;;;;;;;10.56;100.00;101737.50;5259602;28;20465;-67
2021/09/20 04:05:05;;;;;;;14.30;10.85;;;;;;;10.52;100.00;101733.44;5263279;28;20031;-67
2021/09/20 04:07:39;;;;;;;11.95;10.68;;;;;;;10.48;100.00;101738.88;5261962;28;20036;-68
2021/09/20 04:10:12;;;;;;;12.45;10.23;;;;;;;10.50;100.00;101740.56;5262427;28;20029;-68
2021/09/20 04:12:43;;;;;;;12.68;10.35;;;;;;;10.50;100.00;101735.34;5262173;28;20462;-67
2021/09/20 04:15:14;;;;;;;13.13;10.93;;;;;;;10.46;100.00;101750.44;5261700;28;20033;-68
2021/09/20 04:17:46;;;;;;;13.48;10.68;;;;;;;10.38;100.00;101740.50;5263110;28;20054;-67
2021/09/20 04:20:17;;;;;;;13.55;11.27;;;;;;;10.36;100.00;101736.28;5261280;28;20028;-69
2021/09/20 04:22:48;;;;;;;13.18;10.73;;;;;;;10.38;100.00;101752.72;5265080;28;20028;-67
2021/09/20 04:25:19;;;;;;;13.85;10.75;;;;;;;10.37;100.00;101749.25;5263782;28;20889;-67
2021/09/20 04:27:51;;;;;;;13.68;10.75;;;;;;;10.38;100.00;101753.59;5261173;28;20029;-68
2021/09/20 04:30:22;;;;;;;14.13;10.77;;;;;;;10.34;100.00;101756.50;5262496;28;20036;-67
2021/09/20 04:32:53;;;;;;;12.88;10.20;;;;;;;10.34;100.00;101759.97;5261921;28;20048;-69
2021/09/20 04:35:25;;;;;;;11.82;10.13;;;;;;;10.27;100.00;101763.97;5262457;28;20128;-68
2021/09/20 04:37:56;;;;;;;12.70;10.35;;;;;;;10.33;100.00;101767.94;5260541;28;20040;-67
2021/09/20 04:40:27;;;;;;;12.55;10.15;;;;;;;10.30;100.00;101776.81;5261561;28;20044;-67
2021/09/20 04:42:59;;;;;;;11.65;10.45;;;;;;;10.27;100.00;101781.47;5256311;28;20218;-67
2021/09/20 04:45:30;;;;;;;12.95;9.95;;;;;;;10.28;100.00;101786.59;5261093;28;20033;-68
2021/09/20 04:48:04;;;;;;;12.02;10.20;;;;;;;10.20;100.00;101788.88;5263326;28;20024;-67
2021/09/20 04:50:43;;;;;;;13.95;10.68;;;;;;;10.15;100.00;101790.94;5262130;28;20040;-67
2021/09/20 04:53:15;;;;;;;13.02;10.32;;;;;;;10.21;100.00;101793.16;5261749;28;20036;-70
2021/09/20 04:55:47;;;;;;;13.43;10.52;;;;;;;10.14;100.00;101794.50;5262177;28;20035;-67
2021/09/20 04:58:18;;;;;;;12.97;10.27;;;;;;;10.14;100.00;101797.94;5260687;28;20032;-70
2021/09/20 05:00:50;;;;;;;13.70;10.18;;;;;;;10.07;100.00;101796.69;5262585;28;20036;-67
2021/09/20 05:03:21;;;;;;;12.13;10.07;;;;;;;10.07;100.00;101798.47;5254213;28;20122;-67
2021/09/20 05:05:52;;;;;;;16.80;11.30;;;;;;;10.07;100.00;101803.72;5261644;28;20081;-67
2021/09/20 05:08:23;;;;;;;11.57;9.65;;;;;;;10.08;100.00;101793.16;5261915;28;20416;-67
2021/09/20 05:10:55;;;;;;;13.85;10.75;;;;;;;10.04;100.00;101801.28;5261471;28;20040;-68
2021/09/20 05:13:26;;;;;;;12.85;10.52;;;;;;;10.00;100.00;101798.06;5263430;28;20029;-68
2021/09/20 05:15:58;;;;;;;13.63;9.82;;;;;;;10.09;100.00;101796.59;5263437;28;20391;-67
2021/09/20 05:18:29;;;;;;;11.35;9.88;;;;;;;10.01;100.00;101796.28;5266339;28;20021;-66
2021/09/20 05:21:01;;;;;;;12.20;10.00;;;;;;;10.01;100.00;101801.53;5264400;28;20090;-68
2021/09/20 05:23:32;;;;;;;12.40;10.30;;;;;;;10.02;100.00;101804.03;5268097;28;20028;-68
2021/09/20 05:26:04;;;;;;;15.10;11.55;;;;;;;9.89;100.00;101801.41;5263696;28;20102;-68
2021/09/20 05:28:35;;;;;;;14.43;11.18;;;;;;;9.95;100.00;101810.59;5263299;28;20025;-68
2021/09/20 05:31:06;;;;;;;17.73;10.77;;;;;;;9.90;100.00;101810.91;5264968;28;20070;-68
2021/09/20 05:33:38;;;;;;;13.68;10.20;;;;;;;9.94;100.00;101811.56;5265532;28;20024;-69
2021/09/20 05:36:09;;;;;;;13.80;10.63;;;;;;;9.88;100.00;101804.94;5264102;28;20025;-69
2021/09/20 05:38:40;;;;;;;16.23;10.80;;;;;;;9.92;100.00;101813.44;5262569;28;20441;-68
2021/09/20 05:41:12;;;;;;;11.52;9.98;;;;;;;9.90;100.00;101816.16;5264263;28;20768;-68
2021/09/20 05:43:43;;;;;;;12.88;9.48;;;;;;;9.87;100.00;101813.75;5263901;28;20025;-68
2021/09/20 05:46:14;;;;;;;11.00;9.45;;;;;;;9.84;100.00;101808.69;5264583;28;20021;-67
2021/09/20 05:48:46;;;;;;;12.35;9.55;;;;;;;9.84;100.00;101820.94;5266292;28;20507;-68
2021/09/20 05:51:17;;;;;;;13.35;10.45;;;;;;;9.84;100.00;101816.56;5263568;28;20120;-67
2021/09/20 05:53:48;;;;;;;10.68;8.82;;;;;;;9.87;100.00;101811.13;5263295;28;20020;-68
2021/09/20 05:56:19;;;;;;;12.48;10.10;;;;;;;9.89;100.00;101830.19;5264620;28;20091;-67
2021/09/20 05:58:51;;;;;;;14.25;10.63;;;;;;;9.89;100.00;101827.56;5265747;28;20460;-68
2021/09/20 06:01:22;;;;;;;13.57;9.48;;;;;;;9.92;100.00;101824.72;5264905;28;20118;-68
2021/09/20 06:03:53;;;;;;;16.38;10.40;;;;;;;9.94;100.00;101828.09;5263632;28;20038;-67
2021/09/20 06:06:24;;;;;;;11.88;9.48;;;;;;;9.95;100.00;101824.53;5269655;28;20032;-68
2021/09/20 06:08:58;;;;;;;15.90;10.15;;;;;;;9.99;100.00;101831.25;5266696;28;20406;-68
2021/09/20 06:11:30;;;;;;;14.95;9.65;;;;;;;10.02;100.00;101829.38;5265498;28;20568;-67
2021/09/20 06:14:01;;;;;;;14.55;9.63;;;;;;;10.04;100.00;101824.84;5262790;28;20471;-68
2021/09/20 06:16:32;;;;;;;14.32;10.05;;;;;;;10.06;100.00;101828.22;5264802;28;20390;-67
2021/09/20 06:19:03;;;;;;;13.18;10.05;;;;;;;10.05;100.00;101819.53;5265805;28;20402;-66
2021/09/20 06:21:37;;;;;;;11.98;10.35;;;;;;;10.10;100.00;101832.31;5263383;28;20032;-68
2021/09/20 06:24:08;;;;;;;13.43;9.88;;;;;;;10.11;100.00;101834.81;5262020;28;20037;-67
2021/09/20 06:26:40;;;;;;;13.52;10.10;;;;;;;10.16;100.00;101834.53;5262029;28;20024;-67
2021/09/20 06:29:11;;;;;;;13.27;9.52;;;;;;;10.16;100.00;101829.28;5264416;28;20032;-67
2021/09/20 06:31:42;;;;;;;14.13;11.15;;;;;;;10.18;100.00;101838.69;5263259;28;20032;-67
2021/09/20 06:34:14;;;;;;;16.70;10.27;;;;;;;10.21;100.00;101845.53;5262421;28;20534;-67
2021/09/20 06:36:45;;;;;;;13.32;10.07;;;;;;;10.23;100.00;101839.25;5260684;28;20037;-70
2021/09/20 06:39:16;;;;;;;13.88;10.48;;;;;;;10.32;100.00;101852.69;5262228;28;20032;-67
2021/09/20 06:41:48;;;;;;;13.70;10.38;;;;;;;10.33;100.00;101849.13;5263387;28;20412;-66
2021/09/20 06:44:19;;;;;;;12.57;10.65;;;;;;;10.37;100.00;101856.66;5264624;28;20024;-67
2021/09/20 06:46:50;;;;;;;15.55;9.82;;;;;;;10.42;100.00;101861.63;5263785;28;20111;-68
2021/09/20 06:49:22;;;;;;;12.25;10.85;;;;;;;10.47;100.00;101856.91;5261927;28;20033;-67
2021/09/20 06:51:54;;;;;;;15.13;10.65;;;;;;;10.53;100.00;101866.97;5261286;28;20043;-67
2021/09/20 06:54:25;;;;;;;12.38;10.07;;;;;;;10.58;100.00;101853.53;5262810;28;20033;-66
2021/09/20 06:56:56;;;;;;;12.80;10.25;;;;;;;10.62;100.00;101860.25;5263578;28;20399;-67
2021/09/20 06:59:28;;;;;;;14.80;10.05;;;;;;;10.66;100.00;101852.06;5261607;28;20275;-67
2021/09/20 07:01:59;;;;;;;14.68;11.63;;;;;;;10.74;100.00;101851.53;5262407;28;20132;-67
2021/09/20 07:04:32;;;;;;;16.90;11.55;;;;;;;10.76;100.00;101854.03;5262522;28;20110;-67
2021/09/20 07:07:03;;;;;;;13.38;10.60;;;;;;;10.79;100.00;101859.91;5265283;28;20178;-67
2021/09/20 07:09:34;;;;;;;14.48;10.85;;;;;;;10.82;100.00;101866.72;5260607;28;20103;-67
2021/09/20 07:12:06;;;;;;;14.18;11.02;;;;;;;10.85;100.00;101864.72;5263294;28;20055;-67
2021/09/20 07:14:38;;;;;;;13.98;11.48;;;;;;;10.89;100.00;101865.34;5262557;28;20459;-67
2021/09/20 07:17:09;;;;;;;14.52;11.30;;;;;;;10.94;100.00;101860.63;5261643;28;20059;-66
2021/09/20 07:19:40;;;;;;;14.93;11.32;;;;;;;10.99;100.00;101862.94;5264037;28;20473;-68
2021/09/20 07:22:11;;;;;;;13.73;11.70;;;;;;;11.03;100.00;101856.53;5264625;28;20253;-68
2021/09/20 07:24:43;;;;;;;12.15;10.73;;;;;;;11.07;100.00;101860.63;5261521;28;20056;-67
2021/09/20 07:27:15;;;;;;;12.65;10.82;;;;;;;11.14;100.00;101869.72;5261711;28;20067;-69
2021/09/20 07:29:46;;;;;;;13.63;11.15;;;;;;;11.17;100.00;101872.09;5265266;28;20101;-70
2021/09/20 07:32:18;;;;;;;13.35;11.73;;;;;;;11.26;100.00;101870.63;5263356;28;20021;-68
2021/09/20 07:34:49;;;;;;;15.10;11.63;;;;;;;11.32;100.00;101875.44;5261421;28;20104;-67
2021/09/20 07:37:20;;;;;;;12.80;10.90;;;;;;;11.37;100.00;101878.59;5259833;28;20474;-67
2021/09/20 07:39:52;;;;;;;14.88;11.18;;;;;;;11.44;100.00;101879.81;5262134;28;20151;-67
2021/09/20 07:42:23;;;;;;;13.35;11.60;;;;;;;11.43;100.00;101873.72;5263238;28;20074;-68
2021/09/20 07:44:55;;;;;;;13.25;11.82;;;;;;;11.50;100.00;101881.16;5260450;28;20031;-67
2021/09/20 07:47:26;;;;;;;14.32;11.40;;;;;;;11.59;100.00;101889.22;5261677;28;20047;-67
2021/09/20 07:49:57;;;;;;;14.48;11.88;;;;;;;11.58;100.00;101892.75;5261678;28;20020;-68
2021/09/20 07:52:29;;;;;;;13.77;11.25;;;;;;;11.64;100.00;101887.09;5263076;28;20067;-66
2021/09/20 07:55:00;;;;;;;13.45;11.70;;;;;;;11.71;100.00;101897.16;5260920;28;20036;-67
2021/09/20 07:57:32;;;;;;;14.23;10.82;;;;;;;11.77;100.00;101892.25;5263644;28;20043;-67
2021/09/20 08:00:09;;;;;;;14.20;12.27;;;;;;;11.83;100.00;101898.88;5263999;28;20025;-68
2021/09/20 08:02:41;;;;;;;13.50;12.10;;;;;;;11.87;100.00;101900.34;5259515;28;20024;-68
2021/09/20 08:05:13;;;;;;;13.30;11.90;;;;;;;11.91;100.00;101907.06;5256691;28;20024;-68
2021/09/20 08:07:45;;;;;;;11.95;10.75;;;;;;;11.93;100.00;101900.75;5261692;28;20037;-68
2021/09/20 08:10:17;;;;;;;13.32;11.63;;;;;;;12.02;100.00;101908.88;5264146;28;20036;-68
2021/09/20 08:12:48;;;;;;;14.07;11.57;;;;;;;12.09;100.00;101905.69;5262368;28;20138;-68
2021/09/20 08:15:21;;;;;;;13.30;11.00;;;;;;;12.10;100.00;101909.16;5261850;28;20029;-67
2021/09/20 08:17:53;;;;;;;13.13;11.45;;;;;;;12.18;100.00;101914.69;5264223;28;20021;-67
2021/09/20 08:20:24;;;;;;;13.57;11.57;;;;;;;12.26;100.00;101912.31;5263389;28;20161;-67
2021/09/20 08:22:55;;;;;;;16.40;11.93;;;;;;;12.36;100.00;101921.19;5261954;28;21226;-67
2021/09/20 08:25:31;;;;;;;13.25;11.57;;;;;;;12.45;100.00;101921.44;5260781;28;20401;-66
2021/09/20 08:28:03;;;;;;;13.57;11.43;;;;;;;12.59;100.00;101921.25;5262478;28;20036;-68
2021/09/20 08:30:34;;;;;;;13.20;11.68;;;;;;;12.70;100.00;101917.78;5261004;28;20036;-68
2021/09/20 08:33:06;;;;;;;13.90;12.35;;;;;;;12.83;100.00;101914.09;5262124;28;20033;-68
2021/09/20 08:35:37;;;;;;;13.02;11.73;;;;;;;12.90;100.00;101919.72;5261635;28;20025;-67
2021/09/20 08:38:08;;;;;;;14.00;12.00;;;;;;;12.96;100.00;101924.50;5263739;28;20085;-70
2021/09/20 08:40:40;;;;;;;17.73;12.55;;;;;;;13.11;100.00;101930.38;5261537;28;20032;-67
2021/09/20 08:43:11;;;;;;;14.32;12.82;;;;;;;13.23;100.00;101932.06;5251641;28;20021;-68
2021/09/20 08:45:43;;;;;;;14.27;11.85;;;;;;;13.41;100.00;101928.91;5259485;28;20021;-68
2021/09/20 08:48:14;;;;;;;13.32;11.68;;;;;;;13.53;100.00;101941.13;5256617;28;20508;-68
2021/09/20 08:50:45;;;;;;;13.65;11.80;;;;;;;13.61;100.00;101942.19;5262846;28;20055;-68
2021/09/20 08:53:17;;;;;;;12.77;11.25;;;;;;;13.67;100.00;101938.19;5265624;28;20465;-68
2021/09/20 08:55:49;;;;;;;12.35;11.05;;;;;;;13.71;100.00;101944.91;5265246;28;20063;-68
2021/09/20 08:58:21;;;;;;;13.43;11.82;;;;;;;13.81;100.00;101940.56;5266775;28;20132;-68
2021/09/20 09:00:53;;;;;;;13.40;11.25;;;;;;;13.88;100.00;101954.09;5266641;28;20086;-68
2021/09/20 09:03:27;;;;;;;12.70;11.43;;;;;;;13.99;100.00;101954.06;5265618;28;20608;-68
2021/09/20 09:05:59;;;;;;;12.50;11.20;;;;;;;14.18;100.00;101949.91;5265168;28;20043;-69
2021/09/20 09:08:34;;;;;;;13.65;12.25;;;;;;;14.36;100.00;101961.56;5260522;28;20428;-68
2021/09/20 09:11:08;;;;;;;15.52;12.13;;;;;;;14.38;100.00;101964.91;5265451;28;20029;-68
2021/09/20 09:13:46;;;;;;;14.50;12.15;;;;;;;14.54;100.00;101961.84;5263116;28;20055;-70
2021/09/20 09:16:21;;;;;;;14.65;11.48;;;;;;;14.64;100.00;101968.03;5264658;28;20043;-68
2021/09/20 09:19:00;;;;;;;13.73;12.10;;;;;;;14.72;100.00;101959.47;5264375;28;20073;-68
2021/09/20 09:21:38;;;;;;;13.55;12.15;;;;;;;14.75;100.00;101961.84;5263714;28;20036;-68
2021/09/20 09:24:12;;;;;;;13.55;11.68;;;;;;;14.81;100.00;101962.19;5265013;28;20105;-68
2021/09/20 09:26:58;;;;;;;14.32;11.50;;;;;;;15.00;100.00;101963.22;5264317;28;20036;-68
2021/09/20 09:29:32;;;;;;;14.40;11.98;;;;;;;14.91;100.00;101966.66;5262316;28;20071;-68
2021/09/20 09:32:04;;;;;;;14.73;11.60;;;;;;;14.99;100.00;101967.66;5263708;28;20048;-68
2021/09/20 09:34:35;;;;;;;12.55;10.77;;;;;;;15.15;100.00;101972.44;5262875;28;20064;-68
2021/09/20 09:37:09;;;;;;;13.60;11.52;;;;;;;15.20;100.00;101972.91;5263148;28;20142;-68
2021/09/20 09:39:40;;;;;;;12.77;10.75;;;;;;;15.44;100.00;101971.75;5264505;28;20203;-68
2021/09/20 09:42:28;;;;;;;12.77;11.48;;;;;;;15.50;100.00;101976.50;5265270;28;20025;-68
2021/09/20 09:45:18;;;;;;;12.20;10.90;;;;;;;15.53;100.00;101978.84;5262431;28;20094;-68
2021/09/20 09:47:50;;;;;;;13.90;12.05;;;;;;;15.53;100.00;101971.78;5264621;28;20025;-68
2021/09/20 09:50:24;;;;;;;14.45;11.63;;;;;;;15.69;100.00;101970.47;5263606;28;20044;-68
2021/09/20 09:52:56;;;;;;;13.95;11.88;;;;;;;15.70;100.00;101966.84;5264103;28;20052;-68
2021/09/20 09:55:31;;;;;;;13.60;11.18;;;;;;;16.03;100.00;101973.56;5264572;28;20124;-68
2021/09/20 09:58:11;;;;;;;13.48;11.25;;;;;;;16.09;100.00;101978.28;5263269;28;20036;-68
2021/09/20 10:00:43;;;;;;;14.45;11.13;;;;;;;16.16;100.00;101981.22;5265647;28;20028;-68
2021/09/20 10:03:15;;;;;;;14.88;11.18;;;;;;;16.16;100.00;101982.03;5264085;28;20063;-68
2021/09/20 10:05:59;;;;;;;12.18;11.00;;;;;;;16.31;100.00;101979.81;5262215;28;20025;-68
2021/09/20 10:08:30;;;;;;;12.95;11.55;;;;;;;16.37;100.00;101975.81;5263258;28;20128;-68
2021/09/20 10:11:02;;;;;;;11.30;10.10;;;;;;;16.22;100.00;101978.84;5266445;28;20025;-68
2021/09/20 10:13:34;;;;;;;12.05;10.40;;;;;;;16.27;100.00;101979.25;5263120;28;20055;-68
2021/09/20 10:16:05;;;;;;;11.40;10.23;;;;;;;16.24;100.00;101981.34;5264885;28;20028;-68
2021/09/20 10:18:36;;;;;;;11.73;9.90;;;;;;;16.23;100.00;101969.94;5262456;28;20029;-69
2021/09/20 10:21:08;;;;;;;12.05;9.73;;;;;;;16.36;100.00;101976.75;5262185;28;20032;-69
2021/09/20 10:23:40;;;;;;;11.75;9.57;;;;;;;16.45;100.00;101965.34;5261500;28;20024;-67
2021/09/20 10:26:11;;;;;;;10.23;8.60;;;;;;;16.51;100.00;101965.59;5260453;28;20009;-69
2021/09/20 10:28:46;;;;;;;9.82;8.82;;;;;;;16.63;100.00;101958.34;5258373;28;20043;-68
2021/09/20 10:31:18;;;;;;;9.27;8.38;;;;;;;16.84;100.00;101962.66;5262642;28;20073;-68
2021/09/20 10:34:09;;;;;;;9.60;8.60;;;;;;;16.83;100.00;101961.81;5262619;28;20505;-68
2021/09/20 10:36:46;;;;;;;10.95;9.10;;;;;;;16.91;100.00;101963.75;5265654;28;20140;-69
2021/09/20 10:39:38;;;;;;;10.27;9.25;;;;;;;17.00;100.00;101963.69;5265759;28;20025;-68
2021/09/20 10:42:11;;;;;;;10.25;9.23;;;;;;;17.11;100.00;101962.69;5265083;28;20028;-69
2021/09/20 10:44:43;;;;;;;11.50;8.77;;;;;;;17.26;100.00;101963.03;5263053;28;20029;-69
2021/09/20 10:47:15;;;;;;;10.27;8.77;;;;;;;17.30;100.00;101963.59;5262596;28;20530;-69
2021/09/20 10:49:50;;;;;;;10.00;9.00;;;;;;;17.38;100.00;101956.56;5261888;28;20436;-68
2021/09/20 10:52:25;;;;;;;10.27;8.45;;;;;;;17.31;100.00;101966.06;5262177;28;20163;-68
2021/09/20 10:55:09;;;;;;;10.38;9.35;;;;;;;17.33;100.00;101961.47;5257042;28;20021;-68
2021/09/20 10:57:40;;;;;;;9.55;8.48;;;;;;;17.57;100.00;101968.03;5261337;28;20495;-69
2021/09/20 11:00:21;;;;;;;10.30;9.20;;;;;;;17.55;100.00;101970.84;5261178;28;20052;-68
2021/09/20 11:02:53;;;;;;;9.45;8.23;;;;;;;17.65;100.00;101971.63;5261782;28;20428;-68
2021/09/20 11:05:29;;;;;;;8.73;7.80;;;;;;;17.74;100.00;101976.03;5259639;28;20032;-69
2021/09/20 11:08:19;;;;;;;10.32;9.25;;;;;;;17.84;100.00;101968.06;5260948;28;20310;-69
2021/09/20 11:10:50;;;;;;;9.30;8.32;;;;;;;17.77;98.82;101982.88;5263555;28;20197;-68
2021/09/20 11:13:21;;;;;;;8.23;7.45;;;;;;;17.85;99.11;101977.66;5260603;28;20043;-68
2021/09/20 11:15:53;;;;;;;10.15;8.40;;;;;;;17.42;99.33;101983.59;5258916;28;20451;-69
2021/09/20 11:18:34;;;;;;;9.63;7.83;;;;;;;17.54;99.20;101976.28;5257573;28;20493;-68
2021/09/20 11:21:07;;;;;;;9.82;8.52;;;;;;;17.47;99.92;101976.88;5261184;28;20053;-68
2021/09/20 11:23:39;;;;;;;9.88;7.65;;;;;;;17.41;100.00;101973.97;5264141;28;20281;-68
2021/09/20 11:26:14;;;;;;;8.80;7.70;;;;;;;17.35;98.80;101978.06;5262760;28;20169;-68
2021/09/20 11:28:50;;;;;;;9.02;8.13;;;;;;;17.42;99.81;101973.81;5261648;28;20025;-69